sensor_id;sensor_type;location;lat;lon;timestamp;temperature;humidity
48454;DHT22;34261;55.678;12.464;2022-10-24T00:02:07;13.90;99.90
48454;DHT22;34261;55.678;12.464;2022-10-24T00:04:37;13.90;99.90
48454;DHT22;34261;55.678;12.464;2022-10-24T00:07:03;13.90;99.90
48454;DHT22;34261;55.678;12.464;2022-10-24T00:09:29;14.00;99.90
48454;DHT22;34261;55.678;12.464;2022-10-24T00:11:54;14.00;99.90
48454;DHT22;34261;55.678;12.464;2022-10-24T00:14:20;14.00;99.90
48454;DHT22;34261;55.678;12.464;2022-10-24T00:16:45;14.00;99.90
48454;DHT22;34261;55.678;12.464;2022-10-24T00:19:11;14.10;99.90
48454;DHT22;34261;55.678;12.464;2022-10-24T00:21:36;14.10;99.90
48454;DHT22;34261;55.678;12.464;2022-10-24T00:24:01;14.10;99.90
48454;DHT22;34261;55.678;12.464;2022-10-24T00:26:27;14.10;99.90
48454;DHT22;34261;55.678;12.464;2022-10-24T00:28:54;14.10;99.90
48454;DHT22;34261;55.678;12.464;2022-10-24T00:31:19;14.10;99.90
48454;DHT22;34261;55.678;12.464;2022-10-24T00:33:45;14.10;99.90
48454;DHT22;34261;55.678;12.464;2022-10-24T00:36:12;14.10;99.90
48454;DHT22;34261;55.678;12.464;2022-10-24T00:38:37;14.10;99.90
48454;DHT22;34261;55.678;12.464;2022-10-24T00:41:03;14.20;99.90
48454;DHT22;34261;55.678;12.464;2022-10-24T00:43:29;14.20;99.90
48454;DHT22;34261;55.678;12.464;2022-10-24T00:45:55;14.20;99.90
48454;DHT22;34261;55.678;12.464;2022-10-24T00:48:29;14.10;99.90
48454;DHT22;34261;55.678;12.464;2022-10-24T00:51:20;14.20;99.90
48454;DHT22;34261;55.678;12.464;2022-10-24T00:53:53;14.10;99.90
48454;DHT22;34261;55.678;12.464;2022-10-24T00:56:22;14.10;99.90
48454;DHT22;34261;55.678;12.464;2022-10-24T00:58:49;14.10;99.90
48454;DHT22;34261;55.678;12.464;2022-10-24T01:01:16;14.20;99.90
48454;DHT22;34261;55.678;12.464;2022-10-24T01:03:41;14.20;99.90
48454;DHT22;34261;55.678;12.464;2022-10-24T01:11:40;14.20;99.90
48454;DHT22;34261;55.678;12.464;2022-10-24T01:16:44;14.30;99.90
48454;DHT22;34261;55.678;12.464;2022-10-24T01:19:21;14.30;99.90
48454;DHT22;34261;55.678;12.464;2022-10-24T01:21:48;14.30;99.90
48454;DHT22;34261;55.678;12.464;2022-10-24T01:29:18;14.40;99.90
48454;DHT22;34261;55.678;12.464;2022-10-24T01:31:46;14.40;99.90
48454;DHT22;34261;55.678;12.464;2022-10-24T01:34:25;14.50;99.90
48454;DHT22;34261;55.678;12.464;2022-10-24T01:37:00;14.50;99.90
48454;DHT22;34261;55.678;12.464;2022-10-24T01:39:27;14.50;99.90
48454;DHT22;34261;55.678;12.464;2022-10-24T01:41:56;14.50;99.90
48454;DHT22;34261;55.678;12.464;2022-10-24T01:44:22;14.50;99.90
48454;DHT22;34261;55.678;12.464;2022-10-24T01:46:50;14.50;99.90
48454;DHT22;34261;55.678;12.464;2022-10-24T01:49:17;14.50;99.90
48454;DHT22;34261;55.678;12.464;2022-10-24T01:51:43;14.50;99.90
48454;DHT22;34261;55.678;12.464;2022-10-24T01:54:10;14.50;99.90
48454;DHT22;34261;55.678;12.464;2022-10-24T01:56:36;14.50;99.90
48454;DHT22;34261;55.678;12.464;2022-10-24T01:59:05;14.50;99.90
48454;DHT22;34261;55.678;12.464;2022-10-24T02:01:31;14.50;99.90
48454;DHT22;34261;55.678;12.464;2022-10-24T02:03:57;14.60;99.90
48454;DHT22;34261;55.678;12.464;2022-10-24T02:06:29;14.60;99.90
48454;DHT22;34261;55.678;12.464;2022-10-24T02:08:57;14.60;99.90
48454;DHT22;34261;55.678;12.464;2022-10-24T02:11:24;14.60;99.90
48454;DHT22;34261;55.678;12.464;2022-10-24T02:13:56;14.60;99.90
48454;DHT22;34261;55.678;12.464;2022-10-24T02:16:22;14.70;99.90
48454;DHT22;34261;55.678;12.464;2022-10-24T02:18:48;14.70;99.90
48454;DHT22;34261;55.678;12.464;2022-10-24T02:21:20;14.80;99.90
48454;DHT22;34261;55.678;12.464;2022-10-24T02:26:16;14.80;99.90
48454;DHT22;34261;55.678;12.464;2022-10-24T02:28:44;14.80;99.90
48454;DHT22;34261;55.678;12.464;2022-10-24T02:31:12;14.90;99.90
48454;DHT22;34261;55.678;12.464;2022-10-24T02:33:41;14.90;99.90
48454;DHT22;34261;55.678;12.464;2022-10-24T02:36:08;14.80;99.90
48454;DHT22;34261;55.678;12.464;2022-10-24T02:38:36;14.80;99.90
48454;DHT22;34261;55.678;12.464;2022-10-24T02:41:03;14.80;99.90
48454;DHT22;34261;55.678;12.464;2022-10-24T02:43:30;14.90;99.90
48454;DHT22;34261;55.678;12.464;2022-10-24T02:45:56;14.90;99.90
48454;DHT22;34261;55.678;12.464;2022-10-24T02:48:24;14.90;99.90
48454;DHT22;34261;55.678;12.464;2022-10-24T02:50:55;15.00;99.90
48454;DHT22;34261;55.678;12.464;2022-10-24T02:53:21;14.90;99.90
48454;DHT22;34261;55.678;12.464;2022-10-24T02:55:48;14.90;99.90
48454;DHT22;34261;55.678;12.464;2022-10-24T02:58:13;14.90;99.90
48454;DHT22;34261;55.678;12.464;2022-10-24T03:00:39;14.90;99.90
48454;DHT22;34261;55.678;12.464;2022-10-24T03:03:04;14.90;99.90
48454;DHT22;34261;55.678;12.464;2022-10-24T03:05:31;15.00;99.90
48454;DHT22;34261;55.678;12.464;2022-10-24T03:07:58;15.00;99.90
48454;DHT22;34261;55.678;12.464;2022-10-24T03:10:24;15.00;99.90
48454;DHT22;34261;55.678;12.464;2022-10-24T03:12:50;15.00;99.90
48454;DHT22;34261;55.678;12.464;2022-10-24T03:15:15;15.00;99.90
48454;DHT22;34261;55.678;12.464;2022-10-24T03:17:41;15.10;99.90
48454;DHT22;34261;55.678;12.464;2022-10-24T03:20:07;15.00;99.90
48454;DHT22;34261;55.678;12.464;2022-10-24T03:22:33;15.00;99.90
48454;DHT22;34261;55.678;12.464;2022-10-24T03:24:59;15.10;99.90
48454;DHT22;34261;55.678;12.464;2022-10-24T03:27:27;15.10;99.90
48454;DHT22;34261;55.678;12.464;2022-10-24T03:29:54;15.10;99.90
48454;DHT22;34261;55.678;12.464;2022-10-24T03:32:20;15.10;99.90
48454;DHT22;34261;55.678;12.464;2022-10-24T03:34:45;15.10;99.90
48454;DHT22;34261;55.678;12.464;2022-10-24T03:37:11;15.10;99.90
48454;DHT22;34261;55.678;12.464;2022-10-24T03:39:36;15.10;99.90
48454;DHT22;34261;55.678;12.464;2022-10-24T03:42:01;15.10;99.90
48454;DHT22;34261;55.678;12.464;2022-10-24T03:44:27;15.20;99.90
48454;DHT22;34261;55.678;12.464;2022-10-24T03:46:52;15.20;99.90
48454;DHT22;34261;55.678;12.464;2022-10-24T03:49:18;15.20;99.90
48454;DHT22;34261;55.678;12.464;2022-10-24T03:51:43;15.10;99.90
48454;DHT22;34261;55.678;12.464;2022-10-24T03:54:09;15.10;99.90
48454;DHT22;34261;55.678;12.464;2022-10-24T03:56:36;15.10;99.90
48454;DHT22;34261;55.678;12.464;2022-10-24T03:59:01;15.10;99.90
48454;DHT22;34261;55.678;12.464;2022-10-24T04:01:26;15.00;99.90
48454;DHT22;34261;55.678;12.464;2022-10-24T04:03:52;15.00;99.90
48454;DHT22;34261;55.678;12.464;2022-10-24T04:06:17;15.10;99.90
48454;DHT22;34261;55.678;12.464;2022-10-24T04:08:43;15.10;99.90
48454;DHT22;34261;55.678;12.464;2022-10-24T04:11:08;15.00;99.90
48454;DHT22;34261;55.678;12.464;2022-10-24T04:13:34;15.00;99.90
48454;DHT22;34261;55.678;12.464;2022-10-24T04:15:59;15.00;99.90
48454;DHT22;34261;55.678;12.464;2022-10-24T04:18:25;15.00;99.90
48454;DHT22;34261;55.678;12.464;2022-10-24T04:20:50;15.00;99.90
48454;DHT22;34261;55.678;12.464;2022-10-24T04:23:15;14.90;99.90
48454;DHT22;34261;55.678;12.464;2022-10-24T04:25:41;14.90;99.90
48454;DHT22;34261;55.678;12.464;2022-10-24T04:28:07;14.90;99.90
48454;DHT22;34261;55.678;12.464;2022-10-24T04:30:32;14.90;99.90
48454;DHT22;34261;55.678;12.464;2022-10-24T04:32:58;14.90;99.90
48454;DHT22;34261;55.678;12.464;2022-10-24T04:35:24;14.80;99.90
48454;DHT22;34261;55.678;12.464;2022-10-24T04:37:52;14.80;99.90
48454;DHT22;34261;55.678;12.464;2022-10-24T04:40:18;14.80;99.90
48454;DHT22;34261;55.678;12.464;2022-10-24T04:42:43;14.80;99.90
48454;DHT22;34261;55.678;12.464;2022-10-24T04:45:09;14.80;99.90
48454;DHT22;34261;55.678;12.464;2022-10-24T04:47:34;14.80;99.90
48454;DHT22;34261;55.678;12.464;2022-10-24T04:50:00;14.80;99.90
48454;DHT22;34261;55.678;12.464;2022-10-24T04:52:25;14.80;99.90
48454;DHT22;34261;55.678;12.464;2022-10-24T04:54:51;14.80;99.90
48454;DHT22;34261;55.678;12.464;2022-10-24T04:57:16;14.90;99.90
48454;DHT22;34261;55.678;12.464;2022-10-24T04:59:42;14.80;99.90
48454;DHT22;34261;55.678;12.464;2022-10-24T05:02:08;14.80;99.90
48454;DHT22;34261;55.678;12.464;2022-10-24T05:04:33;14.80;99.90
48454;DHT22;34261;55.678;12.464;2022-10-24T05:06:59;14.80;99.90
48454;DHT22;34261;55.678;12.464;2022-10-24T05:09:24;14.80;99.90
48454;DHT22;34261;55.678;12.464;2022-10-24T05:11:49;14.80;99.90
48454;DHT22;34261;55.678;12.464;2022-10-24T05:14:16;14.80;99.90
48454;DHT22;34261;55.678;12.464;2022-10-24T05:16:42;14.80;99.90
48454;DHT22;34261;55.678;12.464;2022-10-24T05:19:07;14.80;99.90
48454;DHT22;34261;55.678;12.464;2022-10-24T05:21:33;14.80;99.90
48454;DHT22;34261;55.678;12.464;2022-10-24T05:23:59;14.80;99.90
48454;DHT22;34261;55.678;12.464;2022-10-24T05:26:24;14.90;99.90
48454;DHT22;34261;55.678;12.464;2022-10-24T05:28:50;14.90;99.90
48454;DHT22;34261;55.678;12.464;2022-10-24T05:31:16;14.90;99.90
48454;DHT22;34261;55.678;12.464;2022-10-24T05:33:42;14.90;99.90
48454;DHT22;34261;55.678;12.464;2022-10-24T05:36:07;14.90;99.90
48454;DHT22;34261;55.678;12.464;2022-10-24T05:38:34;15.00;99.90
48454;DHT22;34261;55.678;12.464;2022-10-24T05:41:00;14.90;99.90
48454;DHT22;34261;55.678;12.464;2022-10-24T05:43:25;14.90;99.90
48454;DHT22;34261;55.678;12.464;2022-10-24T05:45:51;14.90;99.90
48454;DHT22;34261;55.678;12.464;2022-10-24T05:48:17;15.00;99.90
48454;DHT22;34261;55.678;12.464;2022-10-24T05:50:43;14.90;99.90
48454;DHT22;34261;55.678;12.464;2022-10-24T05:53:08;14.90;99.90
48454;DHT22;34261;55.678;12.464;2022-10-24T05:55:34;15.00;99.90
48454;DHT22;34261;55.678;12.464;2022-10-24T05:58:00;15.00;99.90
48454;DHT22;34261;55.678;12.464;2022-10-24T06:00:26;14.90;99.90
48454;DHT22;34261;55.678;12.464;2022-10-24T06:02:51;15.00;99.90
48454;DHT22;34261;55.678;12.464;2022-10-24T06:05:18;14.90;99.90
48454;DHT22;34261;55.678;12.464;2022-10-24T06:07:44;14.90;99.90
48454;DHT22;34261;55.678;12.464;2022-10-24T06:10:10;15.00;99.90
48454;DHT22;34261;55.678;12.464;2022-10-24T06:12:37;15.00;99.90
48454;DHT22;34261;55.678;12.464;2022-10-24T06:15:03;15.00;99.90
48454;DHT22;34261;55.678;12.464;2022-10-24T06:17:29;15.00;99.90
48454;DHT22;34261;55.678;12.464;2022-10-24T06:19:55;15.10;99.90
48454;DHT22;34261;55.678;12.464;2022-10-24T06:22:20;15.10;99.90
48454;DHT22;34261;55.678;12.464;2022-10-24T06:24:49;15.10;99.90
48454;DHT22;34261;55.678;12.464;2022-10-24T06:27:14;15.10;99.90
48454;DHT22;34261;55.678;12.464;2022-10-24T06:29:40;15.10;99.90
48454;DHT22;34261;55.678;12.464;2022-10-24T06:32:06;15.10;99.90
48454;DHT22;34261;55.678;12.464;2022-10-24T06:34:31;15.10;99.90
48454;DHT22;34261;55.678;12.464;2022-10-24T06:36:57;15.10;99.90
48454;DHT22;34261;55.678;12.464;2022-10-24T06:39:22;15.10;99.90
48454;DHT22;34261;55.678;12.464;2022-10-24T06:41:48;15.10;99.90
48454;DHT22;34261;55.678;12.464;2022-10-24T06:44:13;15.20;99.90
48454;DHT22;34261;55.678;12.464;2022-10-24T06:46:39;15.20;99.90
48454;DHT22;34261;55.678;12.464;2022-10-24T06:49:13;15.20;99.90
48454;DHT22;34261;55.678;12.464;2022-10-24T06:51:39;15.20;99.90
48454;DHT22;34261;55.678;12.464;2022-10-24T06:54:05;15.20;99.90
48454;DHT22;34261;55.678;12.464;2022-10-24T06:56:30;15.20;99.90
48454;DHT22;34261;55.678;12.464;2022-10-24T06:58:56;15.20;99.90
48454;DHT22;34261;55.678;12.464;2022-10-24T07:01:22;15.20;99.90
48454;DHT22;34261;55.678;12.464;2022-10-24T07:03:48;15.20;99.90
48454;DHT22;34261;55.678;12.464;2022-10-24T07:06:18;15.10;99.90
48454;DHT22;34261;55.678;12.464;2022-10-24T07:08:44;15.10;99.90
48454;DHT22;34261;55.678;12.464;2022-10-24T07:11:10;15.10;99.90
48454;DHT22;34261;55.678;12.464;2022-10-24T07:13:36;15.10;99.90
48454;DHT22;34261;55.678;12.464;2022-10-24T07:16:01;15.20;99.90
48454;DHT22;34261;55.678;12.464;2022-10-24T07:18:26;15.20;99.90
48454;DHT22;34261;55.678;12.464;2022-10-24T07:20:52;15.20;99.90
48454;DHT22;34261;55.678;12.464;2022-10-24T07:23:17;15.20;99.90
48454;DHT22;34261;55.678;12.464;2022-10-24T07:25:43;15.30;99.90
48454;DHT22;34261;55.678;12.464;2022-10-24T07:28:08;15.20;99.90
48454;DHT22;34261;55.678;12.464;2022-10-24T07:30:35;15.30;99.90
48454;DHT22;34261;55.678;12.464;2022-10-24T07:33:01;15.20;99.90
48454;DHT22;34261;55.678;12.464;2022-10-24T07:35:27;15.20;99.90
48454;DHT22;34261;55.678;12.464;2022-10-24T07:37:52;15.20;99.90
48454;DHT22;34261;55.678;12.464;2022-10-24T07:40:18;15.20;99.90
48454;DHT22;34261;55.678;12.464;2022-10-24T07:42:44;15.10;99.90
48454;DHT22;34261;55.678;12.464;2022-10-24T07:45:09;15.10;99.90
48454;DHT22;34261;55.678;12.464;2022-10-24T07:47:35;15.10;99.90
48454;DHT22;34261;55.678;12.464;2022-10-24T07:50:01;15.10;99.90
48454;DHT22;34261;55.678;12.464;2022-10-24T07:52:26;15.10;99.90
48454;DHT22;34261;55.678;12.464;2022-10-24T07:54:52;15.10;99.90
48454;DHT22;34261;55.678;12.464;2022-10-24T07:57:18;15.10;99.90
48454;DHT22;34261;55.678;12.464;2022-10-24T07:59:43;15.10;99.90
48454;DHT22;34261;55.678;12.464;2022-10-24T08:02:10;15.10;99.90
48454;DHT22;34261;55.678;12.464;2022-10-24T08:04:36;15.20;99.90
48454;DHT22;34261;55.678;12.464;2022-10-24T08:07:01;15.20;99.90
48454;DHT22;34261;55.678;12.464;2022-10-24T08:09:27;15.30;99.90
48454;DHT22;34261;55.678;12.464;2022-10-24T08:11:52;15.30;99.90
48454;DHT22;34261;55.678;12.464;2022-10-24T08:14:18;15.40;99.90
48454;DHT22;34261;55.678;12.464;2022-10-24T08:16:43;15.40;99.90
48454;DHT22;34261;55.678;12.464;2022-10-24T08:19:09;15.40;99.90
48454;DHT22;34261;55.678;12.464;2022-10-24T08:21:35;15.40;99.90
48454;DHT22;34261;55.678;12.464;2022-10-24T08:24:01;15.40;99.90
48454;DHT22;34261;55.678;12.464;2022-10-24T08:26:26;15.50;99.90
48454;DHT22;34261;55.678;12.464;2022-10-24T08:28:52;15.50;99.90
48454;DHT22;34261;55.678;12.464;2022-10-24T08:31:18;15.50;99.90
48454;DHT22;34261;55.678;12.464;2022-10-24T08:33:44;15.40;99.90
48454;DHT22;34261;55.678;12.464;2022-10-24T08:36:32;15.50;99.90
48454;DHT22;34261;55.678;12.464;2022-10-24T08:38:56;15.50;99.90
48454;DHT22;34261;55.678;12.464;2022-10-24T08:43:51;15.70;99.90
48454;DHT22;34261;55.678;12.464;2022-10-24T08:47:02;15.70;99.90
48454;DHT22;34261;55.678;12.464;2022-10-24T08:51:42;15.70;99.90
48454;DHT22;34261;55.678;12.464;2022-10-24T08:54:12;15.70;99.90
48454;DHT22;34261;55.678;12.464;2022-10-24T08:56:38;15.70;99.90
48454;DHT22;34261;55.678;12.464;2022-10-24T08:59:04;15.70;99.90
48454;DHT22;34261;55.678;12.464;2022-10-24T09:01:43;15.70;99.90
48454;DHT22;34261;55.678;12.464;2022-10-24T09:04:13;15.80;99.90
48454;DHT22;34261;55.678;12.464;2022-10-24T09:06:39;15.70;99.90
48454;DHT22;34261;55.678;12.464;2022-10-24T09:09:09;15.70;99.90
48454;DHT22;34261;55.678;12.464;2022-10-24T09:11:55;15.70;99.90
48454;DHT22;34261;55.678;12.464;2022-10-24T09:16:56;15.80;99.90
48454;DHT22;34261;55.678;12.464;2022-10-24T09:19:24;15.90;99.90
48454;DHT22;34261;55.678;12.464;2022-10-24T09:21:51;15.90;99.90
48454;DHT22;34261;55.678;12.464;2022-10-24T09:26:55;16.00;99.90
48454;DHT22;34261;55.678;12.464;2022-10-24T09:29:22;16.10;99.90
48454;DHT22;34261;55.678;12.464;2022-10-24T09:31:47;16.00;99.90
48454;DHT22;34261;55.678;12.464;2022-10-24T09:34:15;16.00;99.90
48454;DHT22;34261;55.678;12.464;2022-10-24T09:36:40;16.00;99.90
48454;DHT22;34261;55.678;12.464;2022-10-24T09:41:50;16.00;99.90
48454;DHT22;34261;55.678;12.464;2022-10-24T09:47:24;16.00;99.90
48454;DHT22;34261;55.678;12.464;2022-10-24T09:49:51;16.00;99.90
48454;DHT22;34261;55.678;12.464;2022-10-24T09:54:43;16.00;99.90
48454;DHT22;34261;55.678;12.464;2022-10-24T09:59:36;16.10;99.90
48454;DHT22;34261;55.678;12.464;2022-10-24T10:02:07;16.10;99.90
48454;DHT22;34261;55.678;12.464;2022-10-24T10:04:38;16.10;99.90
48454;DHT22;34261;55.678;12.464;2022-10-24T10:07:08;16.10;99.90
48454;DHT22;34261;55.678;12.464;2022-10-24T10:09:34;16.10;99.90
48454;DHT22;34261;55.678;12.464;2022-10-24T10:12:05;16.10;99.90
48454;DHT22;34261;55.678;12.464;2022-10-24T10:14:31;16.10;99.90
48454;DHT22;34261;55.678;12.464;2022-10-24T10:17:04;16.10;99.90
48454;DHT22;34261;55.678;12.464;2022-10-24T10:19:36;16.10;99.90
48454;DHT22;34261;55.678;12.464;2022-10-24T10:22:03;16.00;99.90
48454;DHT22;34261;55.678;12.464;2022-10-24T10:26:54;16.10;99.90
48454;DHT22;34261;55.678;12.464;2022-10-24T10:29:20;16.20;99.90
48454;DHT22;34261;55.678;12.464;2022-10-24T10:34:31;16.30;99.90
48454;DHT22;34261;55.678;12.464;2022-10-24T10:42:35;16.50;99.90
48454;DHT22;34261;55.678;12.464;2022-10-24T10:45:15;16.40;99.90
48454;DHT22;34261;55.678;12.464;2022-10-24T10:50:41;16.60;99.90
48454;DHT22;34261;55.678;12.464;2022-10-24T10:56:10;16.80;99.90
48454;DHT22;34261;55.678;12.464;2022-10-24T10:58:44;16.90;99.90
48454;DHT22;34261;55.678;12.464;2022-10-24T11:01:15;16.80;99.90
48454;DHT22;34261;55.678;12.464;2022-10-24T11:03:48;16.80;99.90
48454;DHT22;34261;55.678;12.464;2022-10-24T11:06:39;16.90;99.90
48454;DHT22;34261;55.678;12.464;2022-10-24T11:09:18;16.90;99.90
48454;DHT22;34261;55.678;12.464;2022-10-24T11:11:51;16.90;99.90
48454;DHT22;34261;55.678;12.464;2022-10-24T11:14:26;17.00;99.90
48454;DHT22;34261;55.678;12.464;2022-10-24T11:16:56;17.30;99.90
48454;DHT22;34261;55.678;12.464;2022-10-24T11:22:08;17.50;99.90
48454;DHT22;34261;55.678;12.464;2022-10-24T11:24:42;17.50;99.90
48454;DHT22;34261;55.678;12.464;2022-10-24T11:27:14;17.60;99.90
48454;DHT22;34261;55.678;12.464;2022-10-24T11:32:25;17.80;99.90
48454;DHT22;34261;55.678;12.464;2022-10-24T11:34:55;18.00;99.90
48454;DHT22;34261;55.678;12.464;2022-10-24T11:37:26;18.30;99.90
48454;DHT22;34261;55.678;12.464;2022-10-24T11:39:55;18.20;99.90
48454;DHT22;34261;55.678;12.464;2022-10-24T11:45:09;18.60;99.90
48454;DHT22;34261;55.678;12.464;2022-10-24T11:47:37;18.90;99.90
48454;DHT22;34261;55.678;12.464;2022-10-24T11:50:13;19.20;99.90
48454;DHT22;34261;55.678;12.464;2022-10-24T11:52:43;19.50;99.90
48454;DHT22;34261;55.678;12.464;2022-10-24T11:55:15;19.50;99.90
48454;DHT22;34261;55.678;12.464;2022-10-24T11:57:43;19.30;99.90
48454;DHT22;34261;55.678;12.464;2022-10-24T12:00:31;19.40;99.90
48454;DHT22;34261;55.678;12.464;2022-10-24T12:05:44;19.50;99.90
48454;DHT22;34261;55.678;12.464;2022-10-24T12:13:35;19.50;99.90
48454;DHT22;34261;55.678;12.464;2022-10-24T12:18:33;19.30;99.90
48454;DHT22;34261;55.678;12.464;2022-10-24T12:21:03;19.30;99.90
48454;DHT22;34261;55.678;12.464;2022-10-24T12:23:31;19.20;99.90
48454;DHT22;34261;55.678;12.464;2022-10-24T12:26:16;19.10;99.90
48454;DHT22;34261;55.678;12.464;2022-10-24T12:28:51;18.80;99.90
48454;DHT22;34261;55.678;12.464;2022-10-24T12:31:18;18.50;99.90
48454;DHT22;34261;55.678;12.464;2022-10-24T12:33:46;18.40;99.90
48454;DHT22;34261;55.678;12.464;2022-10-24T12:36:12;18.40;99.90
48454;DHT22;34261;55.678;12.464;2022-10-24T12:41:04;18.70;99.90
48454;DHT22;34261;55.678;12.464;2022-10-24T12:43:39;18.80;99.90
48454;DHT22;34261;55.678;12.464;2022-10-24T12:48:50;19.50;99.90
48454;DHT22;34261;55.678;12.464;2022-10-24T12:54:00;19.60;99.90
48454;DHT22;34261;55.678;12.464;2022-10-24T12:56:28;19.50;99.90
48454;DHT22;34261;55.678;12.464;2022-10-24T12:58:57;19.30;99.90
48454;DHT22;34261;55.678;12.464;2022-10-24T13:01:25;19.20;99.90
48454;DHT22;34261;55.678;12.464;2022-10-24T13:12:02;19.50;99.90
48454;DHT22;34261;55.678;12.464;2022-10-24T13:17:12;19.30;99.90
48454;DHT22;34261;55.678;12.464;2022-10-24T13:19:41;19.20;99.90
48454;DHT22;34261;55.678;12.464;2022-10-24T13:24:51;18.90;99.90
48454;DHT22;34261;55.678;12.464;2022-10-24T13:27:24;18.80;99.90
48454;DHT22;34261;55.678;12.464;2022-10-24T13:39:40;18.40;99.90
48454;DHT22;34261;55.678;12.464;2022-10-24T13:42:25;18.40;99.90
48454;DHT22;34261;55.678;12.464;2022-10-24T13:44:59;18.40;99.90
48454;DHT22;34261;55.678;12.464;2022-10-24T13:50:03;18.30;99.90
48454;DHT22;34261;55.678;12.464;2022-10-24T13:52:38;18.40;99.90
48454;DHT22;34261;55.678;12.464;2022-10-24T13:57:46;18.40;99.90
48454;DHT22;34261;55.678;12.464;2022-10-24T14:00:20;18.40;99.90
48454;DHT22;34261;55.678;12.464;2022-10-24T14:02:46;18.40;99.90
48454;DHT22;34261;55.678;12.464;2022-10-24T14:05:28;18.40;99.90
48454;DHT22;34261;55.678;12.464;2022-10-24T14:07:54;18.30;99.90
48454;DHT22;34261;55.678;12.464;2022-10-24T14:10:20;18.20;99.90
48454;DHT22;34261;55.678;12.464;2022-10-24T14:12:45;18.20;99.90
48454;DHT22;34261;55.678;12.464;2022-10-24T14:15:15;18.20;99.90
48454;DHT22;34261;55.678;12.464;2022-10-24T14:17:41;18.20;99.90
48454;DHT22;34261;55.678;12.464;2022-10-24T14:20:21;18.20;99.90
48454;DHT22;34261;55.678;12.464;2022-10-24T14:22:47;18.10;99.90
48454;DHT22;34261;55.678;12.464;2022-10-24T14:25:32;18.20;99.90
48454;DHT22;34261;55.678;12.464;2022-10-24T14:28:01;18.20;99.90
48454;DHT22;34261;55.678;12.464;2022-10-24T14:30:28;18.20;99.90
48454;DHT22;34261;55.678;12.464;2022-10-24T14:33:15;18.30;99.90
48454;DHT22;34261;55.678;12.464;2022-10-24T14:35:41;18.30;99.90
48454;DHT22;34261;55.678;12.464;2022-10-24T14:38:08;18.30;99.90
48454;DHT22;34261;55.678;12.464;2022-10-24T14:40:36;18.10;99.90
48454;DHT22;34261;55.678;12.464;2022-10-24T14:43:02;18.00;99.90
48454;DHT22;34261;55.678;12.464;2022-10-24T14:45:29;18.00;99.90
48454;DHT22;34261;55.678;12.464;2022-10-24T14:47:56;17.90;99.90
48454;DHT22;34261;55.678;12.464;2022-10-24T14:50:32;17.80;99.90
48454;DHT22;34261;55.678;12.464;2022-10-24T14:52:59;17.80;99.90
48454;DHT22;34261;55.678;12.464;2022-10-24T14:55:25;17.80;99.90
48454;DHT22;34261;55.678;12.464;2022-10-24T14:57:51;17.80;99.90
48454;DHT22;34261;55.678;12.464;2022-10-24T15:00:19;17.70;99.90
48454;DHT22;34261;55.678;12.464;2022-10-24T15:02:46;17.70;99.90
48454;DHT22;34261;55.678;12.464;2022-10-24T15:07:43;17.70;99.90
48454;DHT22;34261;55.678;12.464;2022-10-24T15:12:46;17.70;99.90
48454;DHT22;34261;55.678;12.464;2022-10-24T15:17:50;17.60;99.90
48454;DHT22;34261;55.678;12.464;2022-10-24T15:20:17;17.60;99.90
48454;DHT22;34261;55.678;12.464;2022-10-24T15:22:50;17.60;99.90
48454;DHT22;34261;55.678;12.464;2022-10-24T15:25:24;17.50;99.90
48454;DHT22;34261;55.678;12.464;2022-10-24T15:27:50;17.50;99.90
48454;DHT22;34261;55.678;12.464;2022-10-24T15:30:19;17.50;99.90
48454;DHT22;34261;55.678;12.464;2022-10-24T15:32:46;17.30;99.90
48454;DHT22;34261;55.678;12.464;2022-10-24T15:35:12;17.30;99.90
48454;DHT22;34261;55.678;12.464;2022-10-24T15:37:37;17.20;99.90
48454;DHT22;34261;55.678;12.464;2022-10-24T15:40:04;17.10;99.90
48454;DHT22;34261;55.678;12.464;2022-10-24T15:42:30;17.10;99.90
48454;DHT22;34261;55.678;12.464;2022-10-24T15:44:56;17.10;99.90
48454;DHT22;34261;55.678;12.464;2022-10-24T15:47:21;17.10;99.90
48454;DHT22;34261;55.678;12.464;2022-10-24T15:49:48;17.10;99.90
48454;DHT22;34261;55.678;12.464;2022-10-24T15:52:13;17.00;99.90
48454;DHT22;34261;55.678;12.464;2022-10-24T15:54:41;17.00;99.90
48454;DHT22;34261;55.678;12.464;2022-10-24T15:57:10;17.00;99.90
48454;DHT22;34261;55.678;12.464;2022-10-24T15:59:36;17.00;99.90
48454;DHT22;34261;55.678;12.464;2022-10-24T16:02:03;17.10;99.90
48454;DHT22;34261;55.678;12.464;2022-10-24T16:04:28;17.10;99.90
48454;DHT22;34261;55.678;12.464;2022-10-24T16:06:56;17.10;99.90
48454;DHT22;34261;55.678;12.464;2022-10-24T16:09:23;17.00;99.90
48454;DHT22;34261;55.678;12.464;2022-10-24T16:11:50;17.10;99.90
48454;DHT22;34261;55.678;12.464;2022-10-24T16:14:18;17.10;99.90
48454;DHT22;34261;55.678;12.464;2022-10-24T16:16:43;17.10;99.90
48454;DHT22;34261;55.678;12.464;2022-10-24T16:19:09;17.00;99.90
48454;DHT22;34261;55.678;12.464;2022-10-24T16:21:35;17.00;99.90
48454;DHT22;34261;55.678;12.464;2022-10-24T16:24:01;17.00;99.90
48454;DHT22;34261;55.678;12.464;2022-10-24T16:26:26;17.00;99.90
48454;DHT22;34261;55.678;12.464;2022-10-24T16:28:53;17.00;99.90
48454;DHT22;34261;55.678;12.464;2022-10-24T16:31:18;17.00;99.90
48454;DHT22;34261;55.678;12.464;2022-10-24T16:33:48;17.00;99.90
48454;DHT22;34261;55.678;12.464;2022-10-24T16:36:14;17.10;99.90
48454;DHT22;34261;55.678;12.464;2022-10-24T16:38:39;17.00;99.90
48454;DHT22;34261;55.678;12.464;2022-10-24T16:41:05;17.00;99.90
48454;DHT22;34261;55.678;12.464;2022-10-24T16:43:30;17.00;99.90
48454;DHT22;34261;55.678;12.464;2022-10-24T16:45:59;17.00;99.90
48454;DHT22;34261;55.678;12.464;2022-10-24T16:48:25;17.00;99.90
48454;DHT22;34261;55.678;12.464;2022-10-24T16:50:51;17.00;99.90
48454;DHT22;34261;55.678;12.464;2022-10-24T16:53:17;16.90;99.90
48454;DHT22;34261;55.678;12.464;2022-10-24T16:55:46;16.90;99.90
48454;DHT22;34261;55.678;12.464;2022-10-24T16:58:12;16.90;99.90
48454;DHT22;34261;55.678;12.464;2022-10-24T17:00:38;16.90;99.90
48454;DHT22;34261;55.678;12.464;2022-10-24T17:03:03;16.90;99.90
48454;DHT22;34261;55.678;12.464;2022-10-24T17:05:29;16.90;99.90
48454;DHT22;34261;55.678;12.464;2022-10-24T17:07:54;16.80;99.90
48454;DHT22;34261;55.678;12.464;2022-10-24T17:10:20;16.90;99.90
48454;DHT22;34261;55.678;12.464;2022-10-24T17:12:46;16.90;99.90
48454;DHT22;34261;55.678;12.464;2022-10-24T17:15:12;16.90;99.90